Terminal Aerodrome Forecast
Issued by NWS Wichita, KS

Home | Current Version | Previous Version | Text Only | Print | Product List | Glossary On
Versions: 1 2 3 4 5 6 7 8 9 10 11 12 13 14 15 16 17 18
000
FTUS43 KICT 211100 RRA
TAFICT
TAF
KICT 211142Z 2112/2212 00000KT 4SM BR SCT015 OVC100
     FM211300 00000KT 4SM BR BKN015 OVC080
     FM211500 33005KT P6SM OVC025
     FM211700 35007KT P6SM BKN040
     FM212000 36007KT P6SM SCT050=

USA.gov is the U.S. government's official web portal to all federal, state and local government web resources and services.